Time;durP1;ratioP1;P1;durP2;ratioP2;P2;SDS_P1;SDS_P2;PMS_P1;PMS_P2;Temp;Humidity;BMP_temperature;BMP_pressure;BME280_temperature;BME280_humidity;BME280_pressure;Samples;Min_cycle;Max_cycle;Signal;HPM_P1;HPM_P2
2022/12/07 00:01:22;;;;;;;23.77;20.57;;;;;;;;;;4960394;28;20197;-79
2022/12/07 00:03:49;;;;;;;26.53;21.50;;;;;;;;;;4978277;28;20240;-79
2022/12/07 00:06:16;;;;;;;19.30;14.40;;;;;;;;;;4984458;28;20190;-79
2022/12/07 00:08:43;;;;;;;20.70;16.37;;;;;;;;;;5000972;28;20189;-79
2022/12/07 00:11:16;;;;;;;21.57;18.00;;;;;;;;;;4983186;28;20192;-79
2022/12/07 00:13:42;;;;;;;20.13;13.80;;;;;;;;;;5001925;28;20190;-79
2022/12/07 00:16:13;;;;;;;13.13;10.63;;;;;;;;;;4995618;28;20189;-79
2022/12/07 00:18:39;;;;;;;18.17;13.33;;;;;;;;;;4983285;28;20285;-79
2022/12/07 00:21:13;;;;;;;11.87;10.63;;;;;;;;;;4974218;28;20194;-79
2022/12/07 00:23:39;;;;;;;13.87;10.77;;;;;;;;;;5003275;28;20300;-79
2022/12/07 00:26:06;;;;;;;16.50;11.10;;;;;;;;;;4989946;28;20269;-79
2022/12/07 00:28:33;;;;;;;15.93;9.53;;;;;;;;;;5000267;28;20190;-79
2022/12/07 00:31:18;;;;;;;12.80;9.67;;;;;;;;;;4971435;28;20229;-82
2022/12/07 00:33:44;;;;;;;14.67;8.97;;;;;;;;;;4977204;28;20274;-81
2022/12/07 00:36:12;;;;;;;16.13;8.97;;;;;;;;;;4996346;28;20280;-81
2022/12/07 00:38:39;;;;;;;12.70;9.03;;;;;;;;;;5000080;28;20244;-81
2022/12/07 00:41:06;;;;;;;12.47;9.57;;;;;;;;;;5003443;28;20189;-82
2022/12/07 00:43:32;;;;;;;11.63;8.17;;;;;;;;;;4982936;28;20224;-82
2022/12/07 00:45:58;;;;;;;14.73;8.90;;;;;;;;;;4986279;28;20182;-80
2022/12/07 00:48:24;;;;;;;10.80;7.57;;;;;;;;;;4982840;28;20265;-79
2022/12/07 00:50:50;;;;;;;11.00;7.73;;;;;;;;;;4970942;28;20286;-79
2022/12/07 00:53:16;;;;;;;10.30;7.67;;;;;;;;;;4982766;28;20212;-79
2022/12/07 00:55:43;;;;;;;12.43;8.30;;;;;;;;;;5010830;28;20189;-79
2022/12/07 00:58:09;;;;;;;10.97;8.03;;;;;;;;;;4983435;28;20213;-79
2022/12/07 01:00:37;;;;;;;11.10;7.57;;;;;;;;;;5000201;28;20194;-79
2022/12/07 01:03:03;;;;;;;9.23;7.60;;;;;;;;;;4983884;28;20212;-79
2022/12/07 01:05:29;;;;;;;12.93;8.23;;;;;;;;;;4969264;28;20205;-82
2022/12/07 01:07:55;;;;;;;12.47;7.87;;;;;;;;;;4999852;28;20189;-82
2022/12/07 01:10:21;;;;;;;12.03;8.00;;;;;;;;;;4966671;28;20209;-82
2022/12/07 01:12:47;;;;;;;12.83;7.63;;;;;;;;;;4967378;28;20230;-82
2022/12/07 01:15:13;;;;;;;13.90;8.70;;;;;;;;;;4999054;28;20220;-82
2022/12/07 01:17:39;;;;;;;15.27;7.93;;;;;;;;;;4983279;28;20182;-82
2022/12/07 01:20:06;;;;;;;13.00;8.40;;;;;;;;;;4980937;28;20196;-80
2022/12/07 01:22:32;;;;;;;14.23;8.43;;;;;;;;;;4971523;28;20202;-80
2022/12/07 01:24:57;;;;;;;12.23;8.60;;;;;;;;;;4997564;28;20194;-80
2022/12/07 01:27:23;;;;;;;18.33;8.93;;;;;;;;;;4963846;28;20197;-80
2022/12/07 01:29:51;;;;;;;13.37;9.20;;;;;;;;;;4982114;28;20189;-79
2022/12/07 01:32:17;;;;;;;16.23;9.30;;;;;;;;;;4991000;28;20226;-79
2022/12/07 01:34:43;;;;;;;20.67;9.87;;;;;;;;;;4961830;28;20195;-79
2022/12/07 01:37:09;;;;;;;13.87;9.17;;;;;;;;;;5004768;28;20203;-82
2022/12/07 01:39:35;;;;;;;14.53;9.93;;;;;;;;;;4959004;28;20198;-82
2022/12/07 01:42:01;;;;;;;17.03;9.67;;;;;;;;;;4973025;28;20229;-81
2022/12/07 01:44:32;;;;;;;14.87;9.93;;;;;;;;;;4975855;28;20245;-82
2022/12/07 01:47:00;;;;;;;17.37;10.10;;;;;;;;;;4976362;28;20190;-82
2022/12/07 01:49:29;;;;;;;15.10;10.43;;;;;;;;;;4987914;28;20182;-81
2022/12/07 01:51:59;;;;;;;18.40;10.30;;;;;;;;;;4978970;28;20182;-81
2022/12/07 01:54:25;;;;;;;17.60;9.13;;;;;;;;;;4974959;28;20195;-81
2022/12/07 01:56:54;;;;;;;15.17;9.67;;;;;;;;;;4976713;28;20182;-80
2022/12/07 01:59:22;;;;;;;16.87;9.97;;;;;;;;;;4975556;28;20377;-80
2022/12/07 02:01:48;;;;;;;16.77;9.30;;;;;;;;;;4974492;28;20222;-80
2022/12/07 02:04:14;;;;;;;16.83;9.50;;;;;;;;;;4961782;28;20211;-80
2022/12/07 02:06:41;;;;;;;15.43;10.03;;;;;;;;;;4959367;28;20628;-80
2022/12/07 02:09:07;;;;;;;18.00;9.80;;;;;;;;;;4974693;28;20182;-80
2022/12/07 02:11:33;;;;;;;14.87;9.40;;;;;;;;;;4975108;28;20214;-80
2022/12/07 02:13:59;;;;;;;35.97;22.77;;;;;;;;;;4998312;28;20195;-80
2022/12/07 02:16:38;;;;;;;60.73;33.40;;;;;;;;;;4960473;28;20209;-80
2022/12/07 02:19:19;;;;;;;92.07;45.60;;;;;;;;;;4973679;28;20182;-79
2022/12/07 02:21:45;;;;;;;67.33;37.57;;;;;;;;;;4973901;28;20183;-79
2022/12/07 02:24:29;;;;;;;32.93;19.73;;;;;;;;;;4975532;28;20225;-79
2022/12/07 02:27:10;;;;;;;20.53;14.00;;;;;;;;;;4975187;28;20209;-79
2022/12/07 02:29:44;;;;;;;26.13;16.53;;;;;;;;;;4976074;28;20198;-79
2022/12/07 02:32:16;;;;;;;42.67;27.37;;;;;;;;;;4990504;28;20229;-79
2022/12/07 02:34:49;;;;;;;27.47;18.90;;;;;;;;;;4997848;28;20189;-79
2022/12/07 02:37:20;;;;;;;30.53;21.40;;;;;;;;;;4995337;28;20194;-79
2022/12/07 02:39:53;;;;;;;23.07;12.90;;;;;;;;;;4994860;28;20198;-79
2022/12/07 02:42:35;;;;;;;23.93;17.50;;;;;;;;;;4980169;28;20240;-79
2022/12/07 02:45:01;;;;;;;18.00;11.90;;;;;;;;;;4981070;22;20256;-85
2022/12/07 02:47:30;;;;;;;17.50;10.77;;;;;;;;;;4997980;28;20315;-83
2022/12/07 02:49:56;;;;;;;14.40;9.20;;;;;;;;;;5013257;28;20201;-84
2022/12/07 02:52:22;;;;;;;15.57;9.53;;;;;;;;;;4997121;28;20184;-84
2022/12/07 02:54:48;;;;;;;17.90;8.63;;;;;;;;;;5005042;28;20232;-84
2022/12/07 02:57:20;;;;;;;15.47;8.73;;;;;;;;;;4996750;28;20193;-83
2022/12/07 03:00:02;;;;;;;12.03;7.73;;;;;;;;;;5012150;28;20192;-83
2022/12/07 03:02:27;;;;;;;15.27;8.27;;;;;;;;;;5000564;28;20239;-79
2022/12/07 03:04:54;;;;;;;14.60;7.90;;;;;;;;;;5013049;28;20181;-79
2022/12/07 03:07:26;;;;;;;19.47;8.37;;;;;;;;;;5012705;28;20182;-79
2022/12/07 03:09:58;;;;;;;13.87;7.93;;;;;;;;;;5014269;28;20186;-79
2022/12/07 03:12:38;;;;;;;14.20;8.47;;;;;;;;;;5007204;28;20188;-79
2022/12/07 03:15:07;;;;;;;14.43;7.97;;;;;;;;;;4987497;28;20265;-79
2022/12/07 03:17:34;;;;;;;15.70;7.37;;;;;;;;;;5007174;28;20213;-83
2022/12/07 03:20:02;;;;;;;18.00;7.57;;;;;;;;;;5008534;28;20188;-83
2022/12/07 03:22:29;;;;;;;15.87;7.67;;;;;;;;;;5014890;28;20216;-84
2022/12/07 03:24:59;;;;;;;16.27;8.00;;;;;;;;;;5013769;28;20245;-82
2022/12/07 03:27:27;;;;;;;12.80;7.03;;;;;;;;;;5008417;28;20193;-83
2022/12/07 03:29:56;;;;;;;16.03;7.27;;;;;;;;;;5015201;28;20228;-84
2022/12/07 03:32:33;;;;;;;15.67;6.80;;;;;;;;;;5010432;28;20178;-83
2022/12/07 03:35:06;;;;;;;14.40;7.47;;;;;;;;;;5010703;28;20188;-79
2022/12/07 03:37:40;;;;;;;16.63;6.93;;;;;;;;;;5012711;28;20181;-79
2022/12/07 03:40:17;;;;;;;13.63;6.43;;;;;;;;;;5013219;28;20197;-79
2022/12/07 03:42:43;;;;;;;11.17;6.53;;;;;;;;;;5015312;28;20272;-79
2022/12/07 03:45:09;;;;;;;11.27;5.90;;;;;;;;;;5014632;28;20189;-79
2022/12/07 03:47:59;;;;;;;12.30;6.30;;;;;;;;;;4967675;28;20226;-79
2022/12/07 03:50:31;;;;;;;10.83;5.70;;;;;;;;;;4991822;28;20204;-79
2022/12/07 03:53:01;;;;;;;15.23;6.40;;;;;;;;;;4988290;28;20251;-79
2022/12/07 03:55:29;;;;;;;17.63;5.60;;;;;;;;;;4977630;28;20190;-79
2022/12/07 03:57:57;;;;;;;13.40;5.90;;;;;;;;;;5002286;28;20197;-79
2022/12/07 04:00:23;;;;;;;15.43;6.20;;;;;;;;;;4991129;28;20194;-79
2022/12/07 04:02:52;;;;;;;13.37;5.67;;;;;;;;;;4981563;28;20218;-79
2022/12/07 04:05:18;;;;;;;12.20;5.37;;;;;;;;;;4976855;28;20206;-79
2022/12/07 04:07:44;;;;;;;13.57;5.43;;;;;;;;;;4990288;28;20201;-80
2022/12/07 04:10:11;;;;;;;12.93;5.37;;;;;;;;;;4992395;28;20217;-80
2022/12/07 04:12:37;;;;;;;16.70;5.00;;;;;;;;;;4964473;28;20187;-80
2022/12/07 04:15:03;;;;;;;13.40;5.10;;;;;;;;;;4989505;28;20178;-80
2022/12/07 04:17:29;;;;;;;12.23;4.80;;;;;;;;;;4958581;28;20191;-80
2022/12/07 04:19:55;;;;;;;13.03;4.53;;;;;;;;;;4991706;28;20186;-80
2022/12/07 04:22:21;;;;;;;8.20;4.77;;;;;;;;;;4970685;28;20190;-80
2022/12/07 04:24:47;;;;;;;11.57;5.13;;;;;;;;;;4977002;28;20209;-79
2022/12/07 04:27:13;;;;;;;11.23;4.73;;;;;;;;;;4975907;28;20178;-79
2022/12/07 04:29:39;;;;;;;13.23;4.80;;;;;;;;;;4959828;28;20195;-79
2022/12/07 04:32:05;;;;;;;9.53;4.50;;;;;;;;;;4959867;28;20199;-79
2022/12/07 04:34:31;;;;;;;9.80;4.60;;;;;;;;;;4987465;28;20191;-79
2022/12/07 04:36:57;;;;;;;12.30;5.03;;;;;;;;;;4989767;28;20193;-79
2022/12/07 04:39:26;;;;;;;8.47;4.47;;;;;;;;;;4961767;28;20262;-79
2022/12/07 04:41:53;;;;;;;10.27;4.40;;;;;;;;;;4990907;28;20186;-84
2022/12/07 04:44:19;;;;;;;11.07;4.43;;;;;;;;;;4978456;28;20233;-84
2022/12/07 04:46:45;;;;;;;10.47;4.20;;;;;;;;;;4972705;28;20230;-84
2022/12/07 04:49:12;;;;;;;9.90;4.23;;;;;;;;;;4987438;28;20216;-84
2022/12/07 04:51:38;;;;;;;8.83;4.10;;;;;;;;;;4992227;28;20275;-84
2022/12/07 04:54:04;;;;;;;15.40;4.20;;;;;;;;;;4980476;28;20213;-84
2022/12/07 04:56:30;;;;;;;10.50;3.80;;;;;;;;;;4995804;28;20192;-84
2022/12/07 04:58:57;;;;;;;13.10;4.00;;;;;;;;;;4980346;28;20257;-80
2022/12/07 05:01:23;;;;;;;10.43;3.87;;;;;;;;;;4990492;28;20190;-80
2022/12/07 05:03:49;;;;;;;14.10;3.77;;;;;;;;;;4987936;28;20211;-80
2022/12/07 05:06:15;;;;;;;12.80;3.90;;;;;;;;;;4977564;28;20214;-80
2022/12/07 05:08:42;;;;;;;9.77;3.80;;;;;;;;;;4991324;28;20186;-80
2022/12/07 05:11:09;;;;;;;15.53;3.77;;;;;;;;;;4960446;28;20221;-80
2022/12/07 05:13:36;;;;;;;15.47;4.00;;;;;;;;;;4992072;28;20197;-78
2022/12/07 05:16:02;;;;;;;10.63;3.87;;;;;;;;;;4965187;28;20218;-79
2022/12/07 05:18:28;;;;;;;11.00;3.33;;;;;;;;;;4991215;28;20186;-79
2022/12/07 05:20:54;;;;;;;10.93;4.27;;;;;;;;;;4974465;28;20197;-79
2022/12/07 05:23:20;;;;;;;10.60;3.30;;;;;;;;;;4960633;28;20210;-79
2022/12/07 05:25:47;;;;;;;13.20;4.20;;;;;;;;;;4977490;28;20207;-79
2022/12/07 05:28:13;;;;;;;12.47;5.47;;;;;;;;;;4976446;28;20188;-79
2022/12/07 05:30:39;;;;;;;16.97;5.57;;;;;;;;;;4975904;28;20179;-79
2022/12/07 05:33:05;;;;;;;10.53;5.40;;;;;;;;;;4975377;28;20183;-79
2022/12/07 05:35:31;;;;;;;12.20;5.23;;;;;;;;;;4976331;28;20194;-82
2022/12/07 05:37:58;;;;;;;13.00;6.03;;;;;;;;;;4976771;28;20205;-81
2022/12/07 05:40:24;;;;;;;12.20;5.37;;;;;;;;;;4959961;28;20187;-81
2022/12/07 05:42:50;;;;;;;14.48;7.72;;;;;;;;;;4975892;28;20444;-82
2022/12/07 05:45:16;;;;;;;14.37;6.10;;;;;;;;;;4960382;28;20274;-81
2022/12/07 05:47:42;;;;;;;15.87;5.67;;;;;;;;;;5002303;28;20300;-81
2022/12/07 05:50:08;;;;;;;12.10;4.97;;;;;;;;;;4975351;28;20175;-81
2022/12/07 05:52:34;;;;;;;14.87;5.30;;;;;;;;;;5002735;28;20173;-81
2022/12/07 05:55:00;;;;;;;8.97;4.47;;;;;;;;;;4980390;28;20190;-81
2022/12/07 05:57:26;;;;;;;9.47;4.60;;;;;;;;;;4998807;28;20181;-81
2022/12/07 05:59:52;;;;;;;10.70;3.97;;;;;;;;;;4996542;28;20240;-81
2022/12/07 06:02:18;;;;;;;10.77;4.07;;;;;;;;;;5000131;28;20193;-82
2022/12/07 06:04:45;;;;;;;10.47;4.03;;;;;;;;;;4975707;28;20210;-82
2022/12/07 06:07:12;;;;;;;11.40;4.97;;;;;;;;;;4976325;28;20187;-82
2022/12/07 06:09:38;;;;;;;12.70;6.38;;;;;;;;;;4976146;28;20503;-82
2022/12/07 06:14:49;;;;;;;13.47;5.97;;;;;;;;;;4983108;28;20241;-82
2022/12/07 06:17:15;;;;;;;17.93;6.07;;;;;;;;;;4996502;28;20262;-81
2022/12/07 06:19:42;;;;;;;11.97;5.90;;;;;;;;;;4995659;28;20209;-81
2022/12/07 06:22:09;;;;;;;13.27;6.20;;;;;;;;;;4995198;28;20181;-82
2022/12/07 06:24:35;;;;;;;8.40;6.07;;;;;;;;;;4995017;28;20214;-81
2022/12/07 06:27:01;;;;;;;13.83;6.50;;;;;;;;;;4996114;28;20174;-82
2022/12/07 06:29:27;;;;;;;13.90;6.40;;;;;;;;;;4979201;28;20194;-81
2022/12/07 06:31:53;;;;;;;13.67;6.37;;;;;;;;;;4979051;28;20217;-82
2022/12/07 06:34:20;;;;;;;17.00;6.07;;;;;;;;;;4978617;28;20186;-81
2022/12/07 06:36:50;;;;;;;15.40;7.00;;;;;;;;;;4995231;28;20182;-80
2022/12/07 06:39:16;;;;;;;13.00;6.50;;;;;;;;;;4994779;28;20182;-80
2022/12/07 06:41:42;;;;;;;14.50;7.37;;;;;;;;;;4978712;28;20182;-80
2022/12/07 06:44:08;;;;;;;12.07;6.37;;;;;;;;;;4994720;28;20240;-79
2022/12/07 06:46:35;;;;;;;16.10;7.63;;;;;;;;;;4994616;28;20226;-80
2022/12/07 06:49:01;;;;;;;14.30;7.10;;;;;;;;;;5011208;28;20189;-80
2022/12/07 06:51:27;;;;;;;13.40;7.63;;;;;;;;;;5011028;28;20324;-80
2022/12/07 06:53:53;;;;;;;17.80;6.53;;;;;;;;;;4995084;28;20213;-84
2022/12/07 06:56:19;;;;;;;24.43;15.53;;;;;;;;;;4994534;28;20181;-84
2022/12/07 06:58:45;;;;;;;20.00;13.63;;;;;;;;;;4994419;28;20211;-84
2022/12/07 07:01:15;;;;;;;20.00;12.80;;;;;;;;;;5010568;28;20178;-83
2022/12/07 07:03:42;;;;;;;18.00;8.40;;;;;;;;;;5010752;28;20252;-83
2022/12/07 07:06:08;;;;;;;11.83;7.33;;;;;;;;;;5010714;28;20217;-84
2022/12/07 07:08:34;;;;;;;13.93;7.10;;;;;;;;;;5010969;28;20182;-84
2022/12/07 07:11:01;;;;;;;18.90;7.07;;;;;;;;;;4994371;28;20273;-81
2022/12/07 07:13:27;;;;;;;14.97;6.63;;;;;;;;;;4995435;28;20210;-81
2022/12/07 07:15:53;;;;;;;14.90;6.60;;;;;;;;;;4994268;28;20190;-81
2022/12/07 07:18:19;;;;;;;21.13;7.33;;;;;;;;;;4993630;28;20194;-81
2022/12/07 07:20:45;;;;;;;15.30;6.50;;;;;;;;;;5010237;28;20193;-81
2022/12/07 07:23:11;;;;;;;18.93;6.67;;;;;;;;;;4993940;28;20239;-81
2022/12/07 07:25:37;;;;;;;15.43;6.47;;;;;;;;;;5010635;28;20182;-81
2022/12/07 07:28:03;;;;;;;13.10;6.10;;;;;;;;;;5010354;28;20189;-79
2022/12/07 07:30:29;;;;;;;11.37;6.00;;;;;;;;;;4993996;28;20253;-79
2022/12/07 07:32:59;;;;;;;11.53;6.20;;;;;;;;;;5010176;28;20182;-79
2022/12/07 07:35:26;;;;;;;10.25;5.20;;;;;;;;;;4993832;28;20097;-80
2022/12/07 07:37:52;;;;;;;17.27;5.57;;;;;;;;;;4993803;28;20197;-80
2022/12/07 07:40:18;;;;;;;14.80;5.63;;;;;;;;;;4994640;28;20174;-79
2022/12/07 07:42:44;;;;;;;14.60;6.13;;;;;;;;;;4994705;28;20178;-80
2022/12/07 07:45:10;;;;;;;10.73;6.17;;;;;;;;;;4994166;28;20178;-84
2022/12/07 07:47:36;;;;;;;12.50;5.70;;;;;;;;;;4980880;28;20244;-84
2022/12/07 07:50:02;;;;;;;15.87;6.00;;;;;;;;;;4958143;28;20187;-84
2022/12/07 07:52:28;;;;;;;13.33;5.90;;;;;;;;;;4958487;28;20234;-84
2022/12/07 07:54:54;;;;;;;13.23;6.00;;;;;;;;;;4974043;28;20190;-84
2022/12/07 07:57:20;;;;;;;13.37;5.80;;;;;;;;;;4974229;28;20194;-85
2022/12/07 07:59:46;;;;;;;13.47;6.40;;;;;;;;;;4958025;28;20257;-84
2022/12/07 08:02:17;;;;;;;12.67;6.13;;;;;;;;;;4974154;28;20182;-84
2022/12/07 08:04:43;;;;;;;14.27;6.73;;;;;;;;;;4974102;28;20234;-84
2022/12/07 08:07:09;;;;;;;13.07;6.60;;;;;;;;;;4958339;28;20183;-85
2022/12/07 08:09:35;;;;;;;11.60;6.00;;;;;;;;;;4974185;28;20178;-85
2022/12/07 08:12:01;;;;;;;11.13;5.70;;;;;;;;;;4973960;28;20201;-84
2022/12/07 08:14:28;;;;;;;11.23;6.47;;;;;;;;;;4958164;28;20214;-84
2022/12/07 08:16:54;;;;;;;30.70;7.93;;;;;;;;;;4958070;28;20210;-85
2022/12/07 08:19:20;;;;;;;176.23;15.13;;;;;;;;;;4957952;28;20186;-85
2022/12/07 08:21:46;;;;;;;163.30;14.87;;;;;;;;;;4974086;28;20186;-85
2022/12/07 08:24:12;;;;;;;17.30;7.40;;;;;;;;;;4973736;28;20210;-84
2022/12/07 08:26:38;;;;;;;16.40;7.47;;;;;;;;;;4972231;28;20215;-84
2022/12/07 08:29:04;;;;;;;12.40;6.43;;;;;;;;;;4992150;28;20231;-84
2022/12/07 08:31:31;;;;;;;14.90;6.70;;;;;;;;;;4961933;28;20182;-84
2022/12/07 08:33:57;;;;;;;17.40;7.53;;;;;;;;;;4962081;28;20186;-82
2022/12/07 08:36:23;;;;;;;17.07;6.83;;;;;;;;;;4979278;28;20190;-82
2022/12/07 08:38:49;;;;;;;17.83;6.80;;;;;;;;;;4977849;28;20263;-82
2022/12/07 08:41:16;;;;;;;12.63;6.20;;;;;;;;;;4977756;28;20178;-82
2022/12/07 08:43:42;;;;;;;16.07;4.50;;;;;;;;;;4977821;28;20210;-82
2022/12/07 08:46:11;;;;;;;10.30;3.90;;;;;;;;;;4979798;28;20181;-81
2022/12/07 08:49:03;;;;;;;13.33;3.40;;;;;;;;;;5000391;28;20189;-82
2022/12/07 08:51:30;;;;;;;10.23;3.17;;;;;;;;;;4977969;28;20205;-78
2022/12/07 08:53:56;;;;;;;10.97;3.50;;;;;;;;;;5000133;28;20236;-79
2022/12/07 08:56:23;;;;;;;6.33;2.73;;;;;;;;;;5000128;28;20260;-79
2022/12/07 08:58:49;;;;;;;16.67;5.53;;;;;;;;;;5017425;28;20178;-79
2022/12/07 09:01:15;;;;;;;32.20;19.13;;;;;;;;;;5000000;28;20182;-78
2022/12/07 09:03:41;;;;;;;17.10;11.63;;;;;;;;;;4999948;28;20304;-79
2022/12/07 09:06:08;;;;;;;12.33;5.30;;;;;;;;;;4999927;28;20268;-79
2022/12/07 09:08:36;;;;;;;11.17;5.50;;;;;;;;;;5017107;28;20255;-79
2022/12/07 09:11:02;;;;;;;9.73;3.80;;;;;;;;;;5019401;28;20175;-80
2022/12/07 09:13:28;;;;;;;9.73;3.77;;;;;;;;;;5036797;28;20186;-80
2022/12/07 09:15:54;;;;;;;6.97;3.10;;;;;;;;;;5019352;28;20185;-80
2022/12/07 09:18:20;;;;;;;9.80;3.40;;;;;;;;;;5019316;28;20188;-80
2022/12/07 09:20:46;;;;;;;7.60;3.37;;;;;;;;;;5019138;28;20177;-80
2022/12/07 09:23:12;;;;;;;7.77;4.20;;;;;;;;;;5018940;28;20219;-80
2022/12/07 09:25:39;;;;;;;8.60;3.50;;;;;;;;;;5019203;28;20189;-82
2022/12/07 09:28:05;;;;;;;8.63;2.57;;;;;;;;;;5019083;28;20185;-82
2022/12/07 09:30:31;;;;;;;4.90;2.50;;;;;;;;;;5019078;28;20207;-83
2022/12/07 09:32:57;;;;;;;7.23;2.40;;;;;;;;;;5019082;28;20181;-85
2022/12/07 09:35:24;;;;;;;10.90;2.60;;;;;;;;;;5018912;28;20226;-85
2022/12/07 09:37:50;;;;;;;4.07;1.80;;;;;;;;;;5018746;28;20181;-86
2022/12/07 09:40:18;;;;;;;5.03;2.63;;;;;;;;;;5017948;28;20242;-80
2022/12/07 09:42:45;;;;;;;5.73;2.50;;;;;;;;;;5018737;28;20181;-80
2022/12/07 09:45:20;;;;;;;5.97;2.80;;;;;;;;;;5018753;28;20223;-80
2022/12/07 09:47:46;;;;;;;8.23;3.90;;;;;;;;;;5018554;28;20322;-80
2022/12/07 09:50:14;;;;;;;8.17;3.67;;;;;;;;;;5036284;28;20184;-80
2022/12/07 09:52:40;;;;;;;7.23;2.57;;;;;;;;;;5018706;28;20180;-80
2022/12/07 09:55:13;;;;;;;5.57;2.10;;;;;;;;;;5018520;28;20279;-80
2022/12/07 09:57:39;;;;;;;13.83;3.10;;;;;;;;;;5018326;28;20181;-80
2022/12/07 10:00:28;;;;;;;5.77;2.47;;;;;;;;;;5018353;28;20189;-81
2022/12/07 10:02:56;;;;;;;7.90;2.60;;;;;;;;;;5018349;28;20188;-81
2022/12/07 10:05:25;;;;;;;5.63;2.30;;;;;;;;;;5018256;28;20185;-81
2022/12/07 10:07:51;;;;;;;6.37;2.47;;;;;;;;;;5018147;28;20181;-81
2022/12/07 10:10:25;;;;;;;6.80;2.73;;;;;;;;;;5018509;28;20180;-81
2022/12/07 10:12:57;;;;;;;5.20;2.50;;;;;;;;;;5018147;28;20181;-81
2022/12/07 10:15:23;;;;;;;5.37;2.60;;;;;;;;;;5018105;28;20173;-81
2022/12/07 10:17:50;;;;;;;6.97;2.90;;;;;;;;;;5018189;28;20180;-81
2022/12/07 10:20:24;;;;;;;6.03;2.33;;;;;;;;;;5018120;28;20184;-81
2022/12/07 10:23:01;;;;;;;7.93;2.87;;;;;;;;;;5035449;28;20177;-81
2022/12/07 10:25:32;;;;;;;5.80;2.60;;;;;;;;;;5017700;28;20195;-81
2022/12/07 10:28:03;;;;;;;6.97;2.67;;;;;;;;;;5035168;28;20177;-81
2022/12/07 10:30:30;;;;;;;7.40;2.80;;;;;;;;;;5017791;28;20172;-86
2022/12/07 10:32:56;;;;;;;11.77;2.70;;;;;;;;;;5035361;28;20165;-86
2022/12/07 10:35:22;;;;;;;6.70;3.00;;;;;;;;;;5017692;28;20279;-86
2022/12/07 10:37:48;;;;;;;7.10;2.90;;;;;;;;;;5035379;28;20169;-86
2022/12/07 10:40:27;;;;;;;6.90;2.73;;;;;;;;;;5017748;28;20235;-86
2022/12/07 10:43:05;;;;;;;5.53;2.50;;;;;;;;;;5018007;28;20181;-86
2022/12/07 10:45:31;;;;;;;5.27;2.40;;;;;;;;;;5035312;28;20196;-86
2022/12/07 10:48:05;;;;;;;6.57;2.63;;;;;;;;;;5017346;28;20232;-87
2022/12/07 10:51:07;;;;;;;4.40;2.43;;;;;;;;;;5017593;28;20180;-82
2022/12/07 10:53:49;;;;;;;4.70;2.40;;;;;;;;;;4974467;28;20189;-87
2022/12/07 10:56:21;;;;;;;7.37;2.40;;;;;;;;;;5012113;28;20189;-86
2022/12/07 10:59:06;;;;;;;7.70;2.70;;;;;;;;;;5034934;28;20294;-86
2022/12/07 11:01:32;;;;;;;5.80;2.20;;;;;;;;;;5017345;28;20177;-86
2022/12/07 11:04:14;;;;;;;5.77;2.30;;;;;;;;;;5013388;28;20209;-84
2022/12/07 11:06:45;;;;;;;9.80;2.67;;;;;;;;;;5004786;28;20204;-84
2022/12/07 11:09:11;;;;;;;6.87;2.30;;;;;;;;;;4998184;28;20180;-83
2022/12/07 11:11:39;;;;;;;9.40;2.50;;;;;;;;;;4998069;28;20173;-83
2022/12/07 11:14:15;;;;;;;5.47;2.20;;;;;;;;;;4997927;28;20181;-83
2022/12/07 11:16:57;;;;;;;10.73;5.63;;;;;;;;;;4997858;28;20195;-83
2022/12/07 11:19:35;;;;;;;23.97;13.27;;;;;;;;;;4997898;28;20196;-83
2022/12/07 11:22:04;;;;;;;22.43;10.70;;;;;;;;;;5015199;28;20181;-83
2022/12/07 11:24:30;;;;;;;70.57;40.00;;;;;;;;;;5014035;28;20209;-83
2022/12/07 11:26:56;;;;;;;33.70;19.77;;;;;;;;;;5013890;28;20184;-83
2022/12/07 11:29:28;;;;;;;10.83;6.23;;;;;;;;;;5014243;28;20173;-83
2022/12/07 11:32:04;;;;;;;7.93;3.47;;;;;;;;;;5015203;28;20180;-83
2022/12/07 11:34:39;;;;;;;5.77;3.23;;;;;;;;;;4997929;28;20192;-83
2022/12/07 11:37:09;;;;;;;7.03;3.20;;;;;;;;;;4997559;28;20181;-86
2022/12/07 11:39:41;;;;;;;7.90;5.50;;;;;;;;;;4998182;28;20212;-85
2022/12/07 11:42:13;;;;;;;8.50;2.60;;;;;;;;;;5015053;28;20264;-86
2022/12/07 11:44:54;;;;;;;7.83;3.90;;;;;;;;;;4997203;28;20209;-86
2022/12/07 11:47:31;;;;;;;11.83;3.53;;;;;;;;;;4997203;28;20265;-85
2022/12/07 11:50:02;;;;;;;5.50;2.90;;;;;;;;;;4997203;28;20181;-86
2022/12/07 11:52:37;;;;;;;7.17;2.90;;;;;;;;;;4997296;28;20205;-86
2022/12/07 11:55:05;;;;;;;7.60;2.07;;;;;;;;;;4997097;28;20188;-80
2022/12/07 11:57:38;;;;;;;7.17;3.40;;;;;;;;;;5013655;28;20559;-80
2022/12/07 12:00:07;;;;;;;8.63;2.77;;;;;;;;;;4997123;28;20178;-81
2022/12/07 12:02:37;;;;;;;6.68;2.90;;;;;;;;;;4995783;28;20422;-80
2022/12/07 12:05:14;;;;;;;6.07;2.22;;;;;;;;;;5014052;28;20433;-80
2022/12/07 12:07:41;;;;;;;8.40;2.63;;;;;;;;;;4995945;28;20407;-80
2022/12/07 12:10:21;;;;;;;9.97;2.20;;;;;;;;;;4996944;28;20239;-83
2022/12/07 12:13:07;;;;;;;8.70;2.53;;;;;;;;;;5014540;28;20211;-83
2022/12/07 12:15:33;;;;;;;8.17;2.50;;;;;;;;;;4996759;28;20188;-83
2022/12/07 12:18:06;;;;;;;10.17;2.63;;;;;;;;;;5014553;28;20177;-83
2022/12/07 12:21:01;;;;;;;10.40;2.80;;;;;;;;;;4996978;28;20173;-82
2022/12/07 12:23:27;;;;;;;7.03;2.63;;;;;;;;;;4980983;28;20209;-83
2022/12/07 12:25:56;;;;;;;6.87;2.80;;;;;;;;;;4997039;28;20177;-80
2022/12/07 12:28:30;;;;;;;6.00;2.55;;;;;;;;;;4996879;28;20407;-83
2022/12/07 12:31:14;;;;;;;6.57;2.72;;;;;;;;;;4996089;28;20502;-83
2022/12/07 12:33:45;;;;;;;10.38;2.55;;;;;;;;;;4996390;28;20491;-83
2022/12/07 12:36:20;;;;;;;4.77;2.23;;;;;;;;;;4997008;28;20180;-83
2022/12/07 12:38:53;;;;;;;8.70;2.72;;;;;;;;;;4996185;28;20490;-83
2022/12/07 12:44:18;;;;;;;6.67;2.50;;;;;;;;;;4971035;28;20298;-80
2022/12/07 12:46:50;;;;;;;7.27;2.60;;;;;;;;;;5013927;28;20232;-80
2022/12/07 12:49:16;;;;;;;9.23;3.10;;;;;;;;;;4996673;28;20268;-80
2022/12/07 12:51:44;;;;;;;9.40;3.30;;;;;;;;;;5013995;28;20267;-80
2022/12/07 12:54:30;;;;;;;7.73;3.13;;;;;;;;;;4996950;28;20173;-80
2022/12/07 12:57:19;;;;;;;7.23;2.30;;;;;;;;;;4996560;28;20245;-80
2022/12/07 12:59:51;;;;;;;5.53;2.20;;;;;;;;;;4986896;28;20189;-81
2022/12/07 13:02:17;;;;;;;5.63;2.00;;;;;;;;;;4996669;28;20188;-86
2022/12/07 13:04:52;;;;;;;5.80;2.00;;;;;;;;;;5013863;28;20201;-86
2022/12/07 13:07:37;;;;;;;7.30;1.90;;;;;;;;;;4996827;28;20199;-86
2022/12/07 13:10:03;;;;;;;6.93;2.35;;;;;;;;;;4995434;28;20415;-86
2022/12/07 13:12:29;;;;;;;4.73;2.10;;;;;;;;;;4996639;28;20176;-86
2022/12/07 13:14:59;;;;;;;6.50;2.40;;;;;;;;;;4996555;28;20419;-85
2022/12/07 13:17:31;;;;;;;10.57;2.95;;;;;;;;;;4999718;28;20409;-80
2022/12/07 13:19:59;;;;;;;6.10;2.30;;;;;;;;;;4999963;28;20212;-80
2022/12/07 13:22:31;;;;;;;7.73;2.37;;;;;;;;;;5017449;28;20169;-80
2022/12/07 13:24:58;;;;;;;9.53;2.50;;;;;;;;;;5000040;28;20208;-80
2022/12/07 13:27:27;;;;;;;7.03;2.75;;;;;;;;;;4999070;28;20426;-80
2022/12/07 13:29:54;;;;;;;7.20;2.37;;;;;;;;;;5000037;28;20170;-80
2022/12/07 13:32:24;;;;;;;9.40;2.60;;;;;;;;;;4999673;28;20284;-80
2022/12/07 13:34:50;;;;;;;9.57;2.57;;;;;;;;;;4999956;28;20177;-80
2022/12/07 13:37:27;;;;;;;6.63;2.57;;;;;;;;;;4999560;28;20205;-80
2022/12/07 13:39:57;;;;;;;8.45;2.95;;;;;;;;;;4999584;28;20421;-80
2022/12/07 13:42:28;;;;;;;8.57;2.73;;;;;;;;;;4999272;28;20292;-80
2022/12/07 13:44:54;;;;;;;6.70;2.40;;;;;;;;;;5016537;28;20205;-80
2022/12/07 13:47:32;;;;;;;5.17;2.30;;;;;;;;;;4999080;28;20229;-80
2022/12/07 13:49:58;;;;;;;8.10;2.40;;;;;;;;;;4999387;28;20243;-80
2022/12/07 13:52:26;;;;;;;5.87;2.37;;;;;;;;;;4999694;28;20212;-80
2022/12/07 13:54:58;;;;;;;5.63;2.33;;;;;;;;;;4999225;28;20185;-80
2022/12/07 13:57:29;;;;;;;5.80;2.63;;;;;;;;;;4999501;28;20212;-80
2022/12/07 13:59:55;;;;;;;8.05;2.72;;;;;;;;;;4999266;28;20369;-80
2022/12/07 14:02:26;;;;;;;7.77;3.20;;;;;;;;;;4999126;28;20188;-81
2022/12/07 14:05:06;;;;;;;9.53;3.17;;;;;;;;;;5016452;28;20208;-80
2022/12/07 14:07:34;;;;;;;8.97;3.27;;;;;;;;;;4999349;28;20327;-86
2022/12/07 14:10:01;;;;;;;11.40;4.10;;;;;;;;;;4999249;28;20184;-86
2022/12/07 14:12:27;;;;;;;10.13;3.23;;;;;;;;;;4999246;28;20173;-86
2022/12/07 14:14:54;;;;;;;8.50;3.00;;;;;;;;;;4999230;28;20245;-86
2022/12/07 14:17:22;;;;;;;7.53;2.30;;;;;;;;;;4999145;28;20415;-86
2022/12/07 14:19:50;;;;;;;5.17;1.63;;;;;;;;;;5015326;28;20181;-86
2022/12/07 14:22:22;;;;;;;3.77;1.90;;;;;;;;;;4999091;28;20272;-85
2022/12/07 14:24:48;;;;;;;4.57;1.80;;;;;;;;;;5016069;28;20211;-83
2022/12/07 14:27:21;;;;;;;5.33;1.80;;;;;;;;;;4998324;28;20177;-82
2022/12/07 14:29:47;;;;;;;5.53;1.83;;;;;;;;;;4998613;28;20180;-83
2022/12/07 14:32:20;;;;;;;6.17;1.93;;;;;;;;;;4999147;28;20169;-83
2022/12/07 14:34:56;;;;;;;4.13;1.70;;;;;;;;;;4998461;28;20173;-82
2022/12/07 14:37:22;;;;;;;5.87;1.80;;;;;;;;;;4998337;28;20181;-83
2022/12/07 14:39:48;;;;;;;6.27;1.80;;;;;;;;;;4998169;28;20182;-82
2022/12/07 14:42:14;;;;;;;6.53;1.83;;;;;;;;;;4998102;28;20276;-80
2022/12/07 14:44:40;;;;;;;6.50;2.10;;;;;;;;;;4998075;28;20205;-80
2022/12/07 14:47:09;;;;;;;5.83;1.93;;;;;;;;;;4997943;28;20193;-80
2022/12/07 14:49:35;;;;;;;5.27;2.13;;;;;;;;;;5015637;28;20217;-80